Rapports METAR des aéroports proches

 

LFSI - St. Dizier/Robin, France
Distance from station: SO 26km
Mise à jour: 13/11/2018 21:00
partiellement nuageux
partiellement nuageux
 Wind from E
Vent: E 7 km/h
Température: 6°C
Wind Chill: 4°C
Point de rosée: 5°C
Humidité: 93%
Baromètre: 1030 hPa
Clouds: partiellement nuageux
Visibility: 7 km
2018/11/13 20:00 LFSI 132000Z AUTO 09004KT 7000 NSC 06/05 Q1030
LFSO - Nancy/Ochey (faf, France
Distance from station: ESE 62km
Mise à jour: 13/11/2018 21:00
clair
clair
 Wind from S
Vent: S 9 km/h
Température: 7°C
Wind Chill: 6°C
Point de rosée: 5°C
Humidité: 87%
Baromètre: 1031 hPa
Résumé: clair
Visibility: greater than 10 km
2018/11/13 20:00 LFSO 132000Z AUTO 17005KT CAVOK 07/05 Q1031
 
LFOK - Chalons/Vatry Fa, France
Distance from station: O 73km
Mise à jour: 13/11/2018 21:00
clair
clair
 Wind from S
Vent: S 7 km/h
Température: 7°C
Wind Chill: 6°C
Point de rosée: 6°C
Humidité: 93%
Baromètre: 1030 hPa
Résumé: clair
Visibility: greater than 10 km
2018/11/13 20:00 LFOK 132000Z AUTO 17004KT CAVOK 07/06 Q1030 BECMG 3000 BR
LFSN - Nancy/Essey, France
Distance from station: E 77km
Mise à jour: 13/11/2018 21:00
clair
clair
 Wind from ESE
Vent: ESE 4 km/h
Température: 5°C
Point de rosée: 4°C
Humidité: 93%
Baromètre: 1031 hPa
Résumé: clair
Visibility: greater than 10 km
2018/11/13 20:00 LFSN 132000Z AUTO 12002KT CAVOK 05/04 Q1031
 
LFJL - Metz-Nancy-Lorra, France
Distance from station: ENE 82km
Mise à jour: 13/11/2018 21:00
clair
clair
 Wind from S
Vent: S 15 km/h
Température: 7°C
Wind Chill: 4°C
Point de rosée: 6°C
Humidité: 93%
Baromètre: 1031 hPa
Résumé: clair
Visibility: greater than 10 km
2018/11/13 20:00 LFJL 132000Z AUTO 18008KT CAVOK 07/06 Q1031 NOSIG
LFQA - Reims/Prunay, France
Distance from station: ONO 89km
Mise à jour: 13/11/2018 21:00
clair
clair
 Wind from varies
Vent: varies 4 km/h
Température: 5°C
Point de rosée: 4°C
Humidité: 93%
Baromètre: 1030 hPa
Résumé: clair
Visibility: greater than 10 km
2018/11/13 20:00 LFQA 132000Z AUTO VRB02KT CAVOK 05/04 Q1030
 
LFQB - Troyes/Barberey, France
Distance from station: OSO 99km
Mise à jour: 13/11/2018 21:00
clair
clair
 Wind from S
Vent: S 6 km/h
Température: 5°C
Point de rosée: 5°C
Humidité: 100%
Baromètre: 1030 hPa
Résumé: clair
Visibility: greater than 10 km
2018/11/13 20:00 LFQB 132000Z AUTO 18003KT CAVOK 05/05 Q1030
ELLX - Luxembourg (aut), Luxembourg
Distance from station: NE 122km
Mise à jour: 13/11/2018 20:50
clair
clair
 Wind from OSO
Vent: OSO 15 km/h
Température: 8°C
Wind Chill: 5°C
Point de rosée: 6°C
Humidité: 87%
Baromètre: 1030 hPa
Résumé: clair
Visibility: greater than 10 km
2018/11/13 19:50 ELLX 131950Z 25008KT CAVOK 08/06 Q1030 NOSIG